createdAt,value
2019-05-11T00:02:22.483Z,100682.08
2019-05-11T00:04:52.810Z,100681.22
2019-05-11T00:07:24.220Z,100691.69
2019-05-11T00:09:57.961Z,100698.63
2019-05-11T00:12:26.541Z,100699.02
2019-05-11T00:14:56.886Z,100702.99
2019-05-11T00:17:27.251Z,100704.25
2019-05-11T00:19:57.819Z,100709.52
2019-05-11T00:22:28.674Z,100717.31
2019-05-11T00:24:59.764Z,100716.06
2019-05-11T00:27:30.092Z,100726.47
2019-05-11T00:30:00.437Z,100728.28
2019-05-11T00:32:30.728Z,100736.54
2019-05-11T00:35:02.984Z,100739.97
2019-05-11T00:37:35.515Z,100742.14
2019-05-11T00:40:14.435Z,100736.98
2019-05-11T00:42:40.861Z,100747.80
2019-05-11T00:45:12.733Z,100753.02
2019-05-11T00:47:43.022Z,100756.06
2019-05-11T00:50:14.386Z,100757.75
2019-05-11T00:52:45.174Z,100765.09
2019-05-11T00:55:16.931Z,100769.45
2019-05-11T00:57:48.732Z,100767.25
2019-05-11T01:00:19.522Z,100775.18
2019-05-11T01:02:49.881Z,100779.52
2019-05-11T01:05:20.813Z,100778.12
2019-05-11T01:07:53.213Z,100788.67
2019-05-11T01:10:40.051Z,100785.56
2019-05-11T01:12:56.881Z,100787.30
2019-05-11T01:15:27.508Z,100789.87
2019-05-11T01:17:58.689Z,100795.52
2019-05-11T01:20:28.997Z,100796.91
2019-05-11T01:22:59.798Z,100805.55
2019-05-11T01:25:31.153Z,100803.70
2019-05-11T01:28:02.388Z,100811.06
2019-05-11T01:30:32.704Z,100817.58
2019-05-11T01:33:03.749Z,100817.63
2019-05-11T01:35:34.074Z,100817.60
2019-05-11T01:38:05.472Z,100820.23
2019-05-11T01:40:36.155Z,100825.81
2019-05-11T01:43:06.787Z,100827.98
2019-05-11T01:45:37.220Z,100833.22
2019-05-11T01:48:08.097Z,100840.36
2019-05-11T01:50:38.974Z,100842.38
2019-05-11T01:53:10.739Z,100849.30
2019-05-11T01:55:42.333Z,100849.29
2019-05-11T01:58:13.595Z,100853.65
2019-05-11T02:00:44.161Z,100852.32
2019-05-11T02:03:15.255Z,100850.06
2019-05-11T02:05:45.975Z,100859.70
2019-05-11T02:08:17.223Z,100862.62
2019-05-11T02:10:47.533Z,100866.50
2019-05-11T02:13:17.969Z,100876.83
2019-05-11T02:15:48.520Z,100885.44
2019-05-11T02:18:19.297Z,100891.50
2019-05-11T02:20:49.545Z,100892.38
2019-05-11T02:23:21.011Z,100891.08
2019-05-11T02:25:51.310Z,100888.05
2019-05-11T02:28:21.717Z,100889.80
2019-05-11T02:30:52.818Z,100897.23
2019-05-11T02:33:23.213Z,100899.84
2019-05-11T02:35:54.572Z,100898.55
2019-05-11T02:38:25.681Z,100909.44
2019-05-11T02:40:55.997Z,100914.76
2019-05-11T02:43:26.446Z,100920.83
2019-05-11T02:45:56.792Z,100927.73
2019-05-11T02:48:27.768Z,100929.14
2019-05-11T02:51:00.291Z,100934.38
2019-05-11T02:53:33.709Z,100946.50
2019-05-11T02:56:04.562Z,100949.53
2019-05-11T02:58:35.099Z,100952.58
2019-05-11T03:01:05.915Z,100954.35
2019-05-11T03:03:36.229Z,100959.27
2019-05-11T03:06:06.626Z,100969.20
2019-05-11T03:08:38.497Z,100963.97
2019-05-11T03:11:11.129Z,100976.15
2019-05-11T03:13:42.000Z,100970.06
2019-05-11T03:16:12.730Z,100962.63
2019-05-11T03:18:43.664Z,100975.66
2019-05-11T03:21:14.407Z,100975.14
2019-05-11T03:23:46.148Z,100982.55
2019-05-11T03:26:16.646Z,100989.09
2019-05-11T03:28:47.319Z,100990.77
2019-05-11T03:31:19.684Z,101001.64
2019-05-11T03:33:50.929Z,101001.20
2019-05-11T03:36:21.247Z,101008.14
2019-05-11T03:38:51.937Z,101012.06
2019-05-11T03:41:22.204Z,101013.80
2019-05-11T03:43:52.961Z,101017.67
2019-05-11T03:46:23.429Z,101018.53
2019-05-11T03:48:54.600Z,101027.70
2019-05-11T03:51:25.407Z,101026.36
2019-05-11T03:53:57.122Z,101037.23
2019-05-11T03:56:27.492Z,101035.92
2019-05-11T03:58:57.773Z,101040.27
2019-05-11T04:01:29.197Z,101043.34
2019-05-11T04:03:59.499Z,101049.45
2019-05-11T04:06:29.767Z,101054.70
2019-05-11T04:09:01.898Z,101053.42
2019-05-11T04:11:33.647Z,101053.55
2019-05-11T04:14:04.438Z,101060.41
2019-05-11T04:16:34.752Z,101065.58
2019-05-11T04:19:06.155Z,101072.13
2019-05-11T04:21:36.580Z,101076.45
2019-05-11T04:24:09.083Z,101082.25
2019-05-11T04:26:39.418Z,101090.13
2019-05-11T04:29:09.911Z,101093.50
2019-05-11T04:31:40.169Z,101103.52
2019-05-11T04:34:10.539Z,101115.70
2019-05-11T04:36:41.099Z,101122.13
2019-05-11T04:39:11.398Z,101118.19
2019-05-11T04:41:41.748Z,101122.52
2019-05-11T04:44:12.111Z,101125.55
2019-05-11T04:46:43.713Z,101123.38
2019-05-11T04:49:15.249Z,101129.48
2019-05-11T04:51:46.798Z,101132.46
2019-05-11T04:54:17.809Z,101132.48
2019-05-11T04:56:48.676Z,101146.13
2019-05-11T04:59:20.410Z,101150.84
2019-05-11T05:01:51.672Z,101154.23
2019-05-11T05:04:22.320Z,101154.70
2019-05-11T05:06:59.955Z,101160.33
2019-05-11T05:09:25.660Z,101166.30
2019-05-11T05:11:56.856Z,101172.97
2019-05-11T05:14:27.204Z,101175.61
2019-05-11T05:16:58.426Z,101183.81
2019-05-11T05:19:29.626Z,101190.64
2019-05-11T05:22:00.864Z,101186.92
2019-05-11T05:24:32.167Z,101190.48
2019-05-11T05:27:02.503Z,101189.53
2019-05-11T05:29:34.807Z,101204.99
2019-05-11T05:32:05.132Z,101206.62
2019-05-11T05:34:36.721Z,101209.67
2019-05-11T05:37:06.965Z,101221.20
2019-05-11T05:39:42.082Z,101229.56
2019-05-11T05:42:12.325Z,101234.90
2019-05-11T05:44:42.721Z,101236.80
2019-05-11T05:47:14.373Z,101239.36
2019-05-11T05:49:44.701Z,101241.62
2019-05-11T05:52:16.172Z,101244.76
2019-05-11T05:54:47.404Z,101238.67
2019-05-11T05:57:17.718Z,101255.11
2019-05-11T05:59:48.022Z,101260.44
2019-05-11T06:02:18.666Z,101267.09
2019-05-11T06:04:50.318Z,101264.08
2019-05-11T06:07:22.287Z,101260.70
2019-05-11T06:09:53.537Z,101259.14
2019-05-11T06:12:24.778Z,101256.13
2019-05-11T06:14:55.198Z,101261.58
2019-05-11T06:17:26.138Z,101277.70
2019-05-11T06:20:03.714Z,101280.69
2019-05-11T06:22:34.573Z,101289.14
2019-05-11T06:25:07.624Z,101291.78
2019-05-11T06:27:39.709Z,101291.37
2019-05-11T06:30:10.725Z,101289.29
2019-05-11T06:32:41.898Z,101290.91
2019-05-11T06:35:14.461Z,101296.47
2019-05-11T06:37:45.121Z,101303.43
2019-05-11T06:40:16.825Z,101305.95
2019-05-11T06:42:47.693Z,101313.02
2019-05-11T06:45:18.490Z,101323.52
2019-05-11T06:47:49.128Z,101329.19
2019-05-11T06:50:19.861Z,101328.12
2019-05-11T06:52:51.129Z,101329.05
2019-05-11T06:55:22.291Z,101329.36
2019-05-11T06:57:53.288Z,101329.36
2019-05-11T07:00:23.602Z,101338.25
2019-05-11T07:02:53.983Z,101344.89
2019-05-11T07:05:24.704Z,101355.04
2019-05-11T07:07:57.439Z,101366.08
2019-05-11T07:10:27.894Z,101376.80
2019-05-11T07:12:58.733Z,101370.14
2019-05-11T07:15:29.256Z,101376.06
2019-05-11T07:18:00.258Z,101380.11
2019-05-11T07:20:30.900Z,101380.33
2019-05-11T07:23:01.319Z,101381.77
2019-05-11T07:25:36.798Z,101395.48
2019-05-11T07:28:07.108Z,101401.92
2019-05-11T07:30:39.094Z,101405.95
2019-05-11T07:33:09.339Z,101410.68
2019-05-11T07:35:39.729Z,101418.77
2019-05-11T07:38:10.358Z,101431.89
2019-05-11T07:40:41.493Z,101443.31
2019-05-11T07:43:12.034Z,101444.13
2019-05-11T07:45:42.710Z,101446.27
2019-05-11T07:48:14.016Z,101455.50
2019-05-11T07:50:45.138Z,101459.53
2019-05-11T07:53:18.420Z,101458.44
2019-05-11T07:55:48.711Z,101466.13
2019-05-11T07:58:20.414Z,101469.83
2019-05-11T08:00:51.485Z,101475.05
2019-05-11T08:03:22.446Z,101475.91
2019-05-11T08:05:54.733Z,101488.03
2019-05-11T08:08:28.141Z,101490.91
2019-05-11T08:10:58.676Z,101486.78
2019-05-11T08:13:29.638Z,101489.64
2019-05-11T08:16:03.120Z,101500.43
2019-05-11T08:18:33.839Z,101491.75
2019-05-11T08:21:04.392Z,101496.27
2019-05-11T08:23:37.735Z,101499.70
2019-05-11T08:26:08.882Z,101503.04
2019-05-11T08:28:39.423Z,101506.81
2019-05-11T08:31:09.743Z,101504.95
2019-05-11T08:33:40.028Z,101516.78
2019-05-11T08:36:10.352Z,101524.63
2019-05-11T08:38:40.673Z,101522.94
2019-05-11T08:41:11.075Z,101528.56
2019-05-11T08:43:41.491Z,101534.41
2019-05-11T08:46:11.854Z,101534.48
2019-05-11T08:48:42.693Z,101545.47
2019-05-11T08:51:12.999Z,101555.80
2019-05-11T08:53:43.916Z,101563.61
2019-05-11T08:56:14.889Z,101569.29
2019-05-11T08:58:45.585Z,101570.18
2019-05-11T09:01:18.089Z,101578.78
2019-05-11T09:03:48.567Z,101588.97
2019-05-11T09:06:20.113Z,101598.66
2019-05-11T09:08:50.511Z,101604.34
2019-05-11T09:11:20.976Z,101607.42
2019-05-11T09:13:51.593Z,101612.17
2019-05-11T09:16:22.121Z,101614.77
2019-05-11T09:18:52.965Z,101623.96
2019-05-11T09:21:23.280Z,101631.84
2019-05-11T09:23:53.670Z,101643.17
2019-05-11T09:26:25.085Z,101640.47
2019-05-11T09:28:58.171Z,101647.42
2019-05-11T09:31:28.866Z,101654.54
2019-05-11T09:34:00.215Z,101657.23
2019-05-11T09:36:30.490Z,101654.67
2019-05-11T09:39:00.829Z,101663.51
2019-05-11T09:41:34.473Z,101672.33
2019-05-11T09:44:08.945Z,101670.09
2019-05-11T09:46:39.679Z,101675.72
2019-05-11T09:49:10.855Z,101682.22
2019-05-11T09:51:41.469Z,101689.63
2019-05-11T09:54:12.338Z,101694.81
2019-05-11T09:56:44.937Z,101697.71
2019-05-11T09:59:17.884Z,101716.10
2019-05-11T10:01:48.441Z,101713.49
2019-05-11T10:04:20.977Z,101718.93
2019-05-11T10:06:51.281Z,101713.42
2019-05-11T10:09:21.627Z,101711.05
2019-05-11T10:11:52.061Z,101720.31
2019-05-11T10:14:22.378Z,101726.47
2019-05-11T10:16:52.874Z,101722.22
2019-05-11T10:19:23.515Z,101721.44
2019-05-11T10:21:54.064Z,101721.89
2019-05-11T10:24:24.310Z,101717.28
2019-05-11T10:26:54.704Z,101719.89
2019-05-11T10:29:28.732Z,101722.05
2019-05-11T10:31:58.913Z,101728.40
2019-05-11T10:34:33.071Z,101731.09
2019-05-11T10:37:03.374Z,101734.05
2019-05-11T10:39:34.510Z,101745.98
2019-05-11T10:42:05.245Z,101753.17
2019-05-11T10:44:38.374Z,101758.11
2019-05-11T10:47:08.353Z,101762.52
2019-05-11T10:49:40.777Z,101761.20
2019-05-11T10:52:11.668Z,101761.19
2019-05-11T10:54:42.137Z,101755.75
2019-05-11T10:57:14.370Z,101767.23
2019-05-11T10:59:44.682Z,101762.19
2019-05-11T11:02:15.198Z,101761.41
2019-05-11T11:04:48.593Z,101759.27
2019-05-11T11:07:20.337Z,101759.98
2019-05-11T11:09:51.194Z,101762.61
2019-05-11T11:12:21.895Z,101764.31
2019-05-11T11:14:52.980Z,101772.14
2019-05-11T11:17:23.304Z,101771.46
2019-05-11T11:19:54.277Z,101779.09
2019-05-11T11:22:37.049Z,101788.52
2019-05-11T11:24:59.893Z,101793.50
2019-05-11T11:27:32.863Z,101797.42
2019-05-11T11:30:05.267Z,101794.97
2019-05-11T11:32:38.142Z,101793.16
2019-05-11T11:35:10.280Z,101799.35
2019-05-11T11:37:41.701Z,101804.70
2019-05-11T11:40:17.513Z,101798.94
2019-05-11T11:42:47.891Z,101793.54
2019-05-11T11:45:19.157Z,101796.34
2019-05-11T11:47:50.883Z,101807.71
2019-05-11T11:50:22.415Z,101806.42
2019-05-11T11:52:52.856Z,101804.11
2019-05-11T11:55:23.925Z,101813.98
2019-05-11T11:57:55.539Z,101810.43
2019-05-11T12:00:28.150Z,101819.35
2019-05-11T12:02:58.530Z,101813.36
2019-05-11T12:05:28.937Z,101817.38
2019-05-11T12:07:59.186Z,101824.38
2019-05-11T12:10:31.193Z,101820.66
2019-05-11T12:13:02.315Z,101827.73
2019-05-11T12:15:33.357Z,101838.89
2019-05-11T12:18:04.323Z,101845.95
2019-05-11T12:20:34.630Z,101846.70
2019-05-11T12:23:05.051Z,101848.34
2019-05-11T12:25:38.263Z,101846.55
2019-05-11T12:28:08.165Z,101854.95
2019-05-11T12:30:38.655Z,101852.12
2019-05-11T12:33:12.544Z,101857.53
2019-05-11T12:35:42.013Z,101860.38
2019-05-11T12:38:12.186Z,101869.61
2019-05-11T12:40:43.049Z,101870.89
2019-05-11T12:43:13.842Z,101870.72
2019-05-11T12:45:44.743Z,101873.63
2019-05-11T12:48:15.068Z,101871.35
2019-05-11T12:50:48.242Z,101867.41
2019-05-11T12:53:19.113Z,101880.16
2019-05-11T12:55:49.605Z,101884.39
2019-05-11T12:58:20.903Z,101889.34
2019-05-11T13:00:51.157Z,101893.86
2019-05-11T13:03:21.396Z,101893.73
2019-05-11T13:05:52.314Z,101901.37
2019-05-11T13:08:22.817Z,101905.31
2019-05-11T13:10:53.058Z,101912.84
2019-05-11T13:13:23.901Z,101915.92
2019-05-11T13:15:54.216Z,101916.30
2019-05-11T13:18:29.495Z,101917.60
2019-05-11T13:21:00.151Z,101925.50
2019-05-11T13:23:31.541Z,101929.02
2019-05-11T13:26:01.848Z,101927.62
2019-05-11T13:28:33.618Z,101933.46
2019-05-11T13:31:05.185Z,101930.91
2019-05-11T13:33:35.759Z,101929.58
2019-05-11T13:36:06.080Z,101929.16
2019-05-11T13:38:38.783Z,101941.07
2019-05-11T13:41:09.292Z,101943.27
2019-05-11T13:43:39.744Z,101952.49
2019-05-11T13:46:10.101Z,101950.75
2019-05-11T13:48:41.605Z,101951.59
2019-05-11T13:51:11.901Z,101947.21
2019-05-11T13:53:42.697Z,101948.06
2019-05-11T13:56:12.973Z,101954.69
2019-05-11T13:58:45.676Z,101960.88
2019-05-11T14:01:18.169Z,101967.45
2019-05-11T14:03:49.197Z,101962.15
2019-05-11T14:06:20.035Z,101973.13
2019-05-11T14:08:51.173Z,101974.90
2019-05-11T14:11:21.593Z,101970.06
2019-05-11T14:13:52.586Z,101979.73
2019-05-11T14:16:23.190Z,101981.93
2019-05-11T14:18:55.024Z,101996.44
2019-05-11T14:21:27.992Z,101994.13
2019-05-11T14:23:59.682Z,101995.01
2019-05-11T14:26:30.460Z,101995.00
2019-05-11T14:29:02.766Z,102001.12
2019-05-11T14:31:33.007Z,101990.13
2019-05-11T14:34:04.164Z,101991.06
2019-05-11T14:36:34.817Z,101990.67
2019-05-11T14:39:08.688Z,102001.28
2019-05-11T14:41:38.495Z,101998.20
2019-05-11T14:44:09.097Z,102015.69
2019-05-11T14:46:39.776Z,102028.30
2019-05-11T14:49:10.955Z,102022.51
2019-05-11T14:51:42.102Z,102023.84
2019-05-11T14:54:12.802Z,102032.15
2019-05-11T14:56:44.355Z,102040.52
2019-05-11T14:59:14.777Z,102047.07
2019-05-11T15:01:48.790Z,102049.16
2019-05-11T15:04:18.747Z,102065.34
2019-05-11T15:06:49.901Z,102065.38
2019-05-11T15:09:20.211Z,102079.02
2019-05-11T15:11:52.634Z,102085.57
2019-05-11T15:14:28.835Z,102094.37
2019-05-11T15:17:00.294Z,102089.94
2019-05-11T15:19:30.818Z,102095.11
2019-05-11T15:22:01.058Z,102088.85
2019-05-11T15:24:32.589Z,102100.69
2019-05-11T15:27:02.981Z,102109.16
2019-05-11T15:29:34.466Z,102114.34
2019-05-11T15:32:04.957Z,102119.08
2019-05-11T15:34:37.930Z,102130.16
2019-05-11T15:37:08.496Z,102125.91
2019-05-11T15:39:39.654Z,102135.96
2019-05-11T15:42:16.601Z,102145.26
2019-05-11T15:44:43.485Z,102145.74
2019-05-11T15:47:14.157Z,102154.98
2019-05-11T15:49:48.062Z,102147.97
2019-05-11T15:52:18.774Z,102147.93
2019-05-11T15:54:49.575Z,102165.36
2019-05-11T15:57:19.880Z,102170.86
2019-05-11T15:59:50.939Z,102178.39
2019-05-11T16:02:21.666Z,102177.99
2019-05-11T16:04:52.281Z,102189.06
2019-05-11T16:07:22.510Z,102190.91
2019-05-11T16:09:52.788Z,102189.25
2019-05-11T16:12:24.193Z,102190.79
2019-05-11T16:14:54.844Z,102199.39
2019-05-11T16:17:25.865Z,102203.23
2019-05-11T16:19:58.092Z,102202.81
2019-05-11T16:22:30.457Z,102196.25
2019-05-11T16:25:01.458Z,102205.56
2019-05-11T16:27:32.058Z,102202.64
2019-05-11T16:30:03.946Z,102209.30
2019-05-11T16:32:34.360Z,102208.09
2019-05-11T16:35:09.065Z,102218.08
2019-05-11T16:37:39.601Z,102225.14
2019-05-11T16:40:12.585Z,102228.73
2019-05-11T16:42:43.076Z,102218.73
2019-05-11T16:45:18.951Z,102230.17
2019-05-11T16:47:49.960Z,102228.03
2019-05-11T16:50:21.456Z,102229.66
2019-05-11T16:52:52.177Z,102237.59
2019-05-11T16:55:23.124Z,102239.39
2019-05-11T16:57:55.285Z,102235.47
2019-05-11T17:00:26.385Z,102235.63
2019-05-11T17:02:57.750Z,102246.95
2019-05-11T17:05:33.248Z,102261.38
2019-05-11T17:08:00.950Z,102260.18
2019-05-11T17:10:31.820Z,102250.64
2019-05-11T17:13:03.426Z,102258.88
2019-05-11T17:15:34.724Z,102258.84
2019-05-11T17:18:05.035Z,102264.22
2019-05-11T17:20:35.389Z,102269.31
2019-05-11T17:23:05.729Z,102268.91
2019-05-11T17:25:37.969Z,102271.88
2019-05-11T17:28:09.994Z,102271.86
2019-05-11T17:30:40.397Z,102273.65
2019-05-11T17:33:10.757Z,102269.67
2019-05-11T17:35:41.912Z,102275.63
2019-05-11T17:38:12.220Z,102274.71
2019-05-11T17:40:42.494Z,102286.14
2019-05-11T17:43:13.643Z,102279.88
2019-05-11T17:45:44.394Z,102282.95
2019-05-11T17:48:14.951Z,102283.63
2019-05-11T17:50:45.190Z,102281.95
2019-05-11T17:53:18.292Z,102290.44
2019-05-11T17:55:48.917Z,102301.00
2019-05-11T17:58:19.514Z,102299.88
2019-05-11T18:00:51.086Z,102305.73
2019-05-11T18:03:21.432Z,102308.16
2019-05-11T18:05:52.120Z,102319.95
2019-05-11T18:08:22.818Z,102324.28
2019-05-11T18:10:53.665Z,102325.92
2019-05-11T18:13:24.200Z,102330.09
2019-05-11T18:15:55.108Z,102331.53
2019-05-11T18:18:29.082Z,102334.02
2019-05-11T18:21:00.508Z,102336.08
2019-05-11T18:23:30.836Z,102328.68
2019-05-11T18:26:01.118Z,102331.63
2019-05-11T18:28:31.462Z,102333.23
2019-05-11T18:31:02.858Z,102340.48
2019-05-11T18:33:33.512Z,102333.40
2019-05-11T18:36:04.534Z,102335.54
2019-05-11T18:38:34.884Z,102337.31
2019-05-11T18:41:05.264Z,102336.43
2019-05-11T18:43:37.759Z,102344.46
2019-05-11T18:46:08.892Z,102346.14
2019-05-11T18:48:39.228Z,102353.47
2019-05-11T18:51:09.811Z,102354.88
2019-05-11T18:53:40.334Z,102356.67
2019-05-11T18:56:11.188Z,102367.04
2019-05-11T18:58:43.158Z,102374.35
2019-05-11T19:01:17.548Z,102380.28
2019-05-11T19:03:47.990Z,102385.74
2019-05-11T19:06:21.061Z,102393.22
2019-05-11T19:08:51.296Z,102392.61
2019-05-11T19:11:21.608Z,102391.69
2019-05-11T19:13:52.857Z,102394.90
2019-05-11T19:16:23.180Z,102397.34
2019-05-11T19:18:54.314Z,102398.03
2019-05-11T19:21:24.740Z,102402.42
2019-05-11T19:23:55.290Z,102405.12
2019-05-11T19:26:25.927Z,102409.00
2019-05-11T19:28:57.838Z,102412.55
2019-05-11T19:31:31.074Z,102412.56
2019-05-11T19:34:02.013Z,102409.69
2019-05-11T19:36:32.315Z,102416.48
2019-05-11T19:39:03.042Z,102418.19
2019-05-11T19:41:34.244Z,102419.37
2019-05-11T19:44:05.331Z,102424.56
2019-05-11T19:46:38.357Z,102421.61
2019-05-11T19:49:09.095Z,102428.36
2019-05-11T19:51:42.512Z,102435.67
2019-05-11T19:54:12.765Z,102441.75
2019-05-11T19:56:45.840Z,102446.73
2019-05-11T19:59:16.465Z,102455.01
2019-05-11T20:01:48.115Z,102458.80
2019-05-11T20:04:18.890Z,102460.96
2019-05-11T20:06:49.749Z,102466.37
2019-05-11T20:09:20.752Z,102481.47
2019-05-11T20:11:51.669Z,102479.27
2019-05-11T20:14:22.057Z,102486.23
2019-05-11T20:16:53.031Z,102488.08
2019-05-11T20:19:23.729Z,102490.80
2019-05-11T20:21:54.657Z,102503.58
2019-05-11T20:24:25.293Z,102511.03
2019-05-11T20:26:56.891Z,102509.52
2019-05-11T20:29:27.743Z,102514.38
2019-05-11T20:31:59.202Z,102524.78
2019-05-11T20:34:29.885Z,102526.48
2019-05-11T20:37:01.463Z,102527.58
2019-05-11T20:39:32.255Z,102535.20
2019-05-11T20:42:02.625Z,102537.77
2019-05-11T20:44:33.265Z,102542.21
2019-05-11T20:47:04.137Z,102544.72
2019-05-11T20:49:35.426Z,102539.75
2019-05-11T20:52:08.534Z,102542.20
2019-05-11T20:54:38.759Z,102539.63
2019-05-11T20:57:11.601Z,102537.22
2019-05-11T20:59:42.869Z,102544.86
2019-05-11T21:02:14.839Z,102537.27
2019-05-11T21:04:45.069Z,102541.02
2019-05-11T21:07:19.961Z,102534.85
2019-05-11T21:09:50.598Z,102534.02
2019-05-11T21:12:22.490Z,102530.80
2019-05-11T21:14:52.848Z,102530.86
2019-05-11T21:17:23.783Z,102536.41
2019-05-11T21:19:54.137Z,102545.75
2019-05-11T21:22:25.492Z,102549.11
2019-05-11T21:24:58.198Z,102561.30
2019-05-11T21:27:28.756Z,102562.69
2019-05-11T21:29:59.424Z,102568.86
2019-05-11T21:32:31.350Z,102567.62
2019-05-11T21:35:02.150Z,102570.70
2019-05-11T21:37:32.525Z,102571.72
2019-05-11T21:40:02.873Z,102578.19
2019-05-11T21:42:34.936Z,102583.41
2019-05-11T21:45:09.087Z,102592.95
2019-05-11T21:47:40.420Z,102593.16
2019-05-11T21:50:11.117Z,102596.95
2019-05-11T21:52:42.164Z,102605.26
2019-05-11T21:55:12.861Z,102608.69
2019-05-11T21:57:44.075Z,102619.42
2019-05-11T22:00:14.882Z,102620.37
2019-05-11T22:02:48.623Z,102620.61
2019-05-11T22:05:20.884Z,102625.99
2019-05-11T22:07:51.349Z,102625.80
2019-05-11T22:10:21.672Z,102637.73
2019-05-11T22:12:53.250Z,102630.95
2019-05-11T22:15:24.342Z,102633.50
2019-05-11T22:17:54.795Z,102636.74
2019-05-11T22:20:25.323Z,102637.84
2019-05-11T22:22:58.186Z,102643.89
2019-05-11T22:25:28.872Z,102643.53
2019-05-11T22:27:59.614Z,102647.59
2019-05-11T22:30:30.051Z,102643.55
2019-05-11T22:33:01.747Z,102657.06
2019-05-11T22:35:32.461Z,102653.02
2019-05-11T22:38:03.130Z,102650.69
2019-05-11T22:40:33.448Z,102658.03
2019-05-11T22:43:05.000Z,102654.02
2019-05-11T22:45:35.315Z,102661.43
2019-05-11T22:48:07.927Z,102662.73
2019-05-11T22:50:38.796Z,102662.19
2019-05-11T22:53:11.812Z,102663.90
2019-05-11T22:55:42.098Z,102666.44
2019-05-11T22:58:13.513Z,102665.00
2019-05-11T23:00:45.779Z,102667.13
2019-05-11T23:03:19.873Z,102672.27
2019-05-11T23:05:50.455Z,102674.33
2019-05-11T23:08:21.123Z,102678.99
2019-05-11T23:10:51.444Z,102671.93
2019-05-11T23:13:23.305Z,102677.08
2019-05-11T23:15:53.629Z,102675.70
2019-05-11T23:18:24.071Z,102679.44
2019-05-11T23:20:54.377Z,102687.66
2019-05-11T23:23:25.425Z,102680.95
2019-05-11T23:25:57.541Z,102684.30
2019-05-11T23:28:28.939Z,102683.27
2019-05-11T23:30:59.922Z,102685.33
2019-05-11T23:33:32.137Z,102682.24
2019-05-11T23:36:02.441Z,102684.30
2019-05-11T23:38:32.885Z,102686.01
2019-05-11T23:41:03.526Z,102689.02
2019-05-11T23:43:35.435Z,102685.05
2019-05-11T23:46:05.706Z,102681.93
2019-05-11T23:48:38.414Z,102686.17
2019-05-11T23:51:08.808Z,102688.44
2019-05-11T23:53:40.534Z,102681.14
2019-05-11T23:56:10.873Z,102688.22
2019-05-11T23:58:41.188Z,102694.24
